sensor_id;sensor_type;location;lat;lon;timestamp;P1;durP1;ratioP1;P2;durP2;ratioP2
18228;SDS011;9239;50.932;3.142;2023-06-10T00:01:39;8.38;;;6.88;;
18228;SDS011;9239;50.932;3.142;2023-06-10T00:04:06;9.10;;;7.60;;
18228;SDS011;9239;50.932;3.142;2023-06-10T00:06:33;7.72;;;7.13;;
18228;SDS011;9239;50.932;3.142;2023-06-10T00:09:02;8.13;;;7.43;;
18228;SDS011;9239;50.932;3.142;2023-06-10T00:11:30;8.10;;;6.78;;
18228;SDS011;9239;50.932;3.142;2023-06-10T00:13:59;8.13;;;7.28;;
18228;SDS011;9239;50.932;3.142;2023-06-10T00:16:27;7.88;;;7.35;;
18228;SDS011;9239;50.932;3.142;2023-06-10T00:18:55;9.07;;;8.18;;
18228;SDS011;9239;50.932;3.142;2023-06-10T00:21:25;8.45;;;7.65;;
18228;SDS011;9239;50.932;3.142;2023-06-10T00:23:52;8.27;;;7.47;;
18228;SDS011;9239;50.932;3.142;2023-06-10T00:26:20;9.25;;;7.90;;
18228;SDS011;9239;50.932;3.142;2023-06-10T00:28:47;9.40;;;8.48;;
18228;SDS011;9239;50.932;3.142;2023-06-10T00:31:16;9.63;;;8.80;;
18228;SDS011;9239;50.932;3.142;2023-06-10T00:33:43;8.10;;;7.40;;
18228;SDS011;9239;50.932;3.142;2023-06-10T00:36:10;8.55;;;7.65;;
18228;SDS011;9239;50.932;3.142;2023-06-10T00:38:37;11.15;;;7.93;;
18228;SDS011;9239;50.932;3.142;2023-06-10T00:41:05;8.20;;;7.50;;
18228;SDS011;9239;50.932;3.142;2023-06-10T00:43:32;8.02;;;7.38;;
18228;SDS011;9239;50.932;3.142;2023-06-10T00:45:59;8.38;;;7.57;;
18228;SDS011;9239;50.932;3.142;2023-06-10T00:48:28;7.97;;;7.28;;
18228;SDS011;9239;50.932;3.142;2023-06-10T00:50:55;8.50;;;7.80;;
18228;SDS011;9239;50.932;3.142;2023-06-10T00:53:23;8.18;;;7.38;;
18228;SDS011;9239;50.932;3.142;2023-06-10T00:55:50;8.60;;;7.85;;
18228;SDS011;9239;50.932;3.142;2023-06-10T00:58:17;8.43;;;7.72;;
18228;SDS011;9239;50.932;3.142;2023-06-10T01:00:44;10.35;;;8.80;;
18228;SDS011;9239;50.932;3.142;2023-06-10T01:03:11;8.60;;;7.78;;
18228;SDS011;9239;50.932;3.142;2023-06-10T01:05:40;9.70;;;8.95;;
18228;SDS011;9239;50.932;3.142;2023-06-10T01:08:09;9.23;;;8.32;;
18228;SDS011;9239;50.932;3.142;2023-06-10T01:10:43;8.55;;;7.70;;
18228;SDS011;9239;50.932;3.142;2023-06-10T01:13:14;10.50;;;9.50;;
18228;SDS011;9239;50.932;3.142;2023-06-10T01:15:43;10.18;;;9.30;;
18228;SDS011;9239;50.932;3.142;2023-06-10T01:18:10;10.90;;;9.85;;
18228;SDS011;9239;50.932;3.142;2023-06-10T01:20:41;9.90;;;9.15;;
18228;SDS011;9239;50.932;3.142;2023-06-10T01:23:10;10.43;;;9.43;;
18228;SDS011;9239;50.932;3.142;2023-06-10T01:25:38;9.98;;;9.07;;
18228;SDS011;9239;50.932;3.142;2023-06-10T01:28:14;10.73;;;9.65;;
18228;SDS011;9239;50.932;3.142;2023-06-10T01:30:47;9.85;;;8.95;;
18228;SDS011;9239;50.932;3.142;2023-06-10T01:33:21;10.93;;;9.27;;
18228;SDS011;9239;50.932;3.142;2023-06-10T01:35:56;10.80;;;9.70;;
18228;SDS011;9239;50.932;3.142;2023-06-10T01:38:26;11.38;;;10.27;;
18228;SDS011;9239;50.932;3.142;2023-06-10T01:40:53;11.25;;;9.90;;
18228;SDS011;9239;50.932;3.142;2023-06-10T01:43:22;9.82;;;8.93;;
18228;SDS011;9239;50.932;3.142;2023-06-10T01:45:50;10.38;;;9.40;;
18228;SDS011;9239;50.932;3.142;2023-06-10T01:48:17;10.07;;;9.27;;
18228;SDS011;9239;50.932;3.142;2023-06-10T01:50:43;10.77;;;9.82;;
18228;SDS011;9239;50.932;3.142;2023-06-10T01:53:10;10.55;;;9.75;;
18228;SDS011;9239;50.932;3.142;2023-06-10T01:55:39;9.98;;;9.00;;
18228;SDS011;9239;50.932;3.142;2023-06-10T01:58:05;11.27;;;10.20;;
18228;SDS011;9239;50.932;3.142;2023-06-10T02:00:32;12.82;;;9.85;;
18228;SDS011;9239;50.932;3.142;2023-06-10T02:02:59;11.10;;;10.15;;
18228;SDS011;9239;50.932;3.142;2023-06-10T02:05:26;11.88;;;10.93;;
18228;SDS011;9239;50.932;3.142;2023-06-10T02:07:53;11.00;;;10.20;;
18228;SDS011;9239;50.932;3.142;2023-06-10T02:10:20;11.02;;;9.93;;
18228;SDS011;9239;50.932;3.142;2023-06-10T02:12:48;10.63;;;9.75;;
18228;SDS011;9239;50.932;3.142;2023-06-10T02:15:15;11.25;;;10.07;;
18228;SDS011;9239;50.932;3.142;2023-06-10T02:17:42;10.63;;;9.23;;
18228;SDS011;9239;50.932;3.142;2023-06-10T02:20:10;10.85;;;9.90;;
18228;SDS011;9239;50.932;3.142;2023-06-10T02:22:38;10.02;;;9.20;;
18228;SDS011;9239;50.932;3.142;2023-06-10T02:25:06;10.75;;;9.73;;
18228;SDS011;9239;50.932;3.142;2023-06-10T02:27:33;10.75;;;9.82;;
18228;SDS011;9239;50.932;3.142;2023-06-10T02:30:02;10.60;;;9.70;;
18228;SDS011;9239;50.932;3.142;2023-06-10T02:32:29;11.38;;;10.48;;
18228;SDS011;9239;50.932;3.142;2023-06-10T02:34:55;10.95;;;10.05;;
18228;SDS011;9239;50.932;3.142;2023-06-10T02:37:22;10.13;;;9.23;;
18228;SDS011;9239;50.932;3.142;2023-06-10T02:39:49;10.80;;;10.00;;
18228;SDS011;9239;50.932;3.142;2023-06-10T02:42:16;10.98;;;10.02;;
18228;SDS011;9239;50.932;3.142;2023-06-10T02:44:44;10.93;;;9.98;;
18228;SDS011;9239;50.932;3.142;2023-06-10T02:47:12;11.48;;;10.60;;
18228;SDS011;9239;50.932;3.142;2023-06-10T02:49:39;11.38;;;9.98;;
18228;SDS011;9239;50.932;3.142;2023-06-10T02:52:06;11.80;;;10.77;;
18228;SDS011;9239;50.932;3.142;2023-06-10T02:54:33;15.13;;;10.45;;
18228;SDS011;9239;50.932;3.142;2023-06-10T02:57:01;11.43;;;10.43;;
18228;SDS011;9239;50.932;3.142;2023-06-10T02:59:27;11.43;;;10.52;;
18228;SDS011;9239;50.932;3.142;2023-06-10T03:01:54;11.55;;;10.45;;
18228;SDS011;9239;50.932;3.142;2023-06-10T03:04:23;11.07;;;10.10;;
18228;SDS011;9239;50.932;3.142;2023-06-10T03:06:50;10.27;;;9.48;;
18228;SDS011;9239;50.932;3.142;2023-06-10T03:09:17;11.20;;;9.90;;
18228;SDS011;9239;50.932;3.142;2023-06-10T03:11:44;10.77;;;9.88;;
18228;SDS011;9239;50.932;3.142;2023-06-10T03:14:11;11.32;;;10.43;;
18228;SDS011;9239;50.932;3.142;2023-06-10T03:16:38;11.52;;;10.63;;
18228;SDS011;9239;50.932;3.142;2023-06-10T03:19:05;11.35;;;10.35;;
18228;SDS011;9239;50.932;3.142;2023-06-10T03:21:33;12.90;;;11.68;;
18228;SDS011;9239;50.932;3.142;2023-06-10T03:24:02;10.30;;;9.50;;
18228;SDS011;9239;50.932;3.142;2023-06-10T03:26:30;11.75;;;10.73;;
18228;SDS011;9239;50.932;3.142;2023-06-10T03:28:57;11.93;;;10.93;;
18228;SDS011;9239;50.932;3.142;2023-06-10T03:31:23;11.60;;;10.63;;
18228;SDS011;9239;50.932;3.142;2023-06-10T03:33:50;13.10;;;11.13;;
18228;SDS011;9239;50.932;3.142;2023-06-10T03:36:17;11.48;;;10.38;;
18228;SDS011;9239;50.932;3.142;2023-06-10T03:38:46;10.68;;;9.80;;
18228;SDS011;9239;50.932;3.142;2023-06-10T03:41:12;10.00;;;9.20;;
18228;SDS011;9239;50.932;3.142;2023-06-10T03:43:40;11.00;;;10.05;;
18228;SDS011;9239;50.932;3.142;2023-06-10T03:46:07;10.35;;;9.45;;
18228;SDS011;9239;50.932;3.142;2023-06-10T03:48:34;10.32;;;9.43;;
18228;SDS011;9239;50.932;3.142;2023-06-10T03:51:01;10.85;;;10.05;;
18228;SDS011;9239;50.932;3.142;2023-06-10T03:53:28;11.75;;;10.63;;
18228;SDS011;9239;50.932;3.142;2023-06-10T03:55:56;11.10;;;10.10;;
18228;SDS011;9239;50.932;3.142;2023-06-10T03:58:23;10.82;;;10.02;;
18228;SDS011;9239;50.932;3.142;2023-06-10T04:00:50;11.05;;;10.05;;
18228;SDS011;9239;50.932;3.142;2023-06-10T04:03:18;10.63;;;9.88;;
18228;SDS011;9239;50.932;3.142;2023-06-10T04:05:46;11.98;;;10.88;;
18228;SDS011;9239;50.932;3.142;2023-06-10T04:08:13;11.07;;;10.13;;
18228;SDS011;9239;50.932;3.142;2023-06-10T04:10:40;10.60;;;9.70;;
18228;SDS011;9239;50.932;3.142;2023-06-10T04:13:08;11.85;;;10.75;;
18228;SDS011;9239;50.932;3.142;2023-06-10T04:15:35;12.82;;;10.85;;
18228;SDS011;9239;50.932;3.142;2023-06-10T04:18:02;11.63;;;10.48;;
18228;SDS011;9239;50.932;3.142;2023-06-10T04:20:29;12.40;;;11.45;;
18228;SDS011;9239;50.932;3.142;2023-06-10T04:22:56;12.70;;;11.63;;
18228;SDS011;9239;50.932;3.142;2023-06-10T04:25:22;10.65;;;9.75;;
18228;SDS011;9239;50.932;3.142;2023-06-10T04:27:51;13.05;;;11.88;;
18228;SDS011;9239;50.932;3.142;2023-06-10T04:30:19;11.82;;;10.95;;
18228;SDS011;9239;50.932;3.142;2023-06-10T04:32:47;12.90;;;11.52;;
18228;SDS011;9239;50.932;3.142;2023-06-10T04:35:14;13.07;;;11.98;;
18228;SDS011;9239;50.932;3.142;2023-06-10T04:37:42;12.60;;;11.63;;
18228;SDS011;9239;50.932;3.142;2023-06-10T04:40:09;12.30;;;11.20;;
18228;SDS011;9239;50.932;3.142;2023-06-10T04:42:36;10.73;;;9.93;;
18228;SDS011;9239;50.932;3.142;2023-06-10T04:45:04;11.80;;;10.80;;
18228;SDS011;9239;50.932;3.142;2023-06-10T04:47:33;13.15;;;12.05;;
18228;SDS011;9239;50.932;3.142;2023-06-10T04:50:00;12.52;;;11.52;;
18228;SDS011;9239;50.932;3.142;2023-06-10T04:52:27;11.95;;;10.90;;
18228;SDS011;9239;50.932;3.142;2023-06-10T04:54:54;13.05;;;11.65;;
18228;SDS011;9239;50.932;3.142;2023-06-10T04:57:21;13.30;;;10.93;;
18228;SDS011;9239;50.932;3.142;2023-06-10T04:59:48;12.95;;;11.85;;
18228;SDS011;9239;50.932;3.142;2023-06-10T05:02:15;12.02;;;11.05;;
18228;SDS011;9239;50.932;3.142;2023-06-10T05:04:43;11.40;;;10.48;;
18228;SDS011;9239;50.932;3.142;2023-06-10T05:07:10;12.48;;;11.38;;
18228;SDS011;9239;50.932;3.142;2023-06-10T05:09:37;14.50;;;11.82;;
18228;SDS011;9239;50.932;3.142;2023-06-10T05:12:04;11.57;;;10.68;;
18228;SDS011;9239;50.932;3.142;2023-06-10T05:14:32;13.75;;;11.65;;
18228;SDS011;9239;50.932;3.142;2023-06-10T05:16:58;11.93;;;11.02;;
18228;SDS011;9239;50.932;3.142;2023-06-10T05:19:25;12.40;;;11.23;;
18228;SDS011;9239;50.932;3.142;2023-06-10T05:21:54;11.63;;;10.60;;
18228;SDS011;9239;50.932;3.142;2023-06-10T05:24:20;13.13;;;11.95;;
18228;SDS011;9239;50.932;3.142;2023-06-10T05:26:48;12.90;;;11.68;;
18228;SDS011;9239;50.932;3.142;2023-06-10T05:29:15;12.25;;;11.27;;
18228;SDS011;9239;50.932;3.142;2023-06-10T05:31:42;13.50;;;11.25;;
18228;SDS011;9239;50.932;3.142;2023-06-10T05:34:11;11.95;;;10.95;;
18228;SDS011;9239;50.932;3.142;2023-06-10T05:36:46;13.07;;;12.05;;
18228;SDS011;9239;50.932;3.142;2023-06-10T05:39:14;13.27;;;12.10;;
18228;SDS011;9239;50.932;3.142;2023-06-10T05:41:41;13.63;;;12.23;;
18228;SDS011;9239;50.932;3.142;2023-06-10T05:44:08;14.13;;;12.32;;
18228;SDS011;9239;50.932;3.142;2023-06-10T05:46:35;12.40;;;11.30;;
18228;SDS011;9239;50.932;3.142;2023-06-10T05:49:02;12.95;;;11.73;;
18228;SDS011;9239;50.932;3.142;2023-06-10T05:51:29;14.15;;;12.15;;
18228;SDS011;9239;50.932;3.142;2023-06-10T05:53:56;13.05;;;11.88;;
18228;SDS011;9239;50.932;3.142;2023-06-10T05:56:24;12.48;;;11.55;;
18228;SDS011;9239;50.932;3.142;2023-06-10T05:58:51;12.80;;;11.55;;
18228;SDS011;9239;50.932;3.142;2023-06-10T06:01:18;13.13;;;11.93;;
18228;SDS011;9239;50.932;3.142;2023-06-10T06:03:45;12.88;;;11.73;;
18228;SDS011;9239;50.932;3.142;2023-06-10T06:06:12;13.38;;;12.13;;
18228;SDS011;9239;50.932;3.142;2023-06-10T06:08:39;13.10;;;11.95;;
18228;SDS011;9239;50.932;3.142;2023-06-10T06:11:06;13.02;;;11.77;;
18228;SDS011;9239;50.932;3.142;2023-06-10T06:13:34;12.45;;;11.25;;
18228;SDS011;9239;50.932;3.142;2023-06-10T06:16:01;14.00;;;11.05;;
18228;SDS011;9239;50.932;3.142;2023-06-10T06:18:28;11.68;;;10.63;;
18228;SDS011;9239;50.932;3.142;2023-06-10T06:20:54;11.48;;;10.52;;
18228;SDS011;9239;50.932;3.142;2023-06-10T06:23:21;12.27;;;11.27;;
18228;SDS011;9239;50.932;3.142;2023-06-10T06:25:48;12.88;;;10.90;;
18228;SDS011;9239;50.932;3.142;2023-06-10T06:28:15;12.25;;;11.07;;
18228;SDS011;9239;50.932;3.142;2023-06-10T06:30:45;11.98;;;10.90;;
18228;SDS011;9239;50.932;3.142;2023-06-10T06:33:12;12.27;;;10.57;;
18228;SDS011;9239;50.932;3.142;2023-06-10T06:35:39;11.70;;;10.63;;
18228;SDS011;9239;50.932;3.142;2023-06-10T06:38:06;11.23;;;10.20;;
18228;SDS011;9239;50.932;3.142;2023-06-10T06:40:33;12.35;;;11.15;;
18228;SDS011;9239;50.932;3.142;2023-06-10T06:43:00;12.48;;;11.30;;
18228;SDS011;9239;50.932;3.142;2023-06-10T06:45:27;11.50;;;10.35;;
18228;SDS011;9239;50.932;3.142;2023-06-10T06:47:55;13.70;;;10.95;;
18228;SDS011;9239;50.932;3.142;2023-06-10T06:50:22;11.15;;;10.15;;
18228;SDS011;9239;50.932;3.142;2023-06-10T06:52:49;11.10;;;10.20;;
18228;SDS011;9239;50.932;3.142;2023-06-10T06:55:16;10.38;;;9.57;;
18228;SDS011;9239;50.932;3.142;2023-06-10T06:57:43;10.95;;;9.80;;
18228;SDS011;9239;50.932;3.142;2023-06-10T07:00:10;10.10;;;9.30;;
18228;SDS011;9239;50.932;3.142;2023-06-10T07:02:37;12.52;;;9.93;;
18228;SDS011;9239;50.932;3.142;2023-06-10T07:05:07;9.80;;;8.80;;
18228;SDS011;9239;50.932;3.142;2023-06-10T07:07:34;10.38;;;9.32;;
18228;SDS011;9239;50.932;3.142;2023-06-10T07:10:01;10.13;;;9.02;;
18228;SDS011;9239;50.932;3.142;2023-06-10T07:12:28;10.10;;;9.30;;
18228;SDS011;9239;50.932;3.142;2023-06-10T07:14:55;9.60;;;8.90;;
18228;SDS011;9239;50.932;3.142;2023-06-10T07:17:21;10.73;;;9.82;;
18228;SDS011;9239;50.932;3.142;2023-06-10T07:19:48;10.80;;;9.68;;
18228;SDS011;9239;50.932;3.142;2023-06-10T07:22:18;11.07;;;9.77;;
18228;SDS011;9239;50.932;3.142;2023-06-10T07:24:44;10.68;;;9.63;;
18228;SDS011;9239;50.932;3.142;2023-06-10T07:27:11;9.75;;;8.88;;
18228;SDS011;9239;50.932;3.142;2023-06-10T07:29:38;9.88;;;8.70;;
18228;SDS011;9239;50.932;3.142;2023-06-10T07:32:06;9.70;;;8.90;;
18228;SDS011;9239;50.932;3.142;2023-06-10T07:34:33;9.27;;;8.38;;
18228;SDS011;9239;50.932;3.142;2023-06-10T07:37:00;10.10;;;9.20;;
18228;SDS011;9239;50.932;3.142;2023-06-10T07:39:28;9.75;;;8.95;;
18228;SDS011;9239;50.932;3.142;2023-06-10T07:41:55;9.60;;;8.82;;
18228;SDS011;9239;50.932;3.142;2023-06-10T07:44:22;9.65;;;8.93;;
18228;SDS011;9239;50.932;3.142;2023-06-10T07:46:50;9.68;;;8.77;;
18228;SDS011;9239;50.932;3.142;2023-06-10T07:49:17;9.45;;;8.65;;
18228;SDS011;9239;50.932;3.142;2023-06-10T07:51:44;11.05;;;8.93;;
18228;SDS011;9239;50.932;3.142;2023-06-10T07:54:11;9.15;;;8.40;;
18228;SDS011;9239;50.932;3.142;2023-06-10T07:56:40;9.18;;;8.48;;
18228;SDS011;9239;50.932;3.142;2023-06-10T07:59:07;10.45;;;9.65;;
18228;SDS011;9239;50.932;3.142;2023-06-10T08:01:34;9.43;;;8.50;;
18228;SDS011;9239;50.932;3.142;2023-06-10T08:04:03;9.68;;;8.70;;
18228;SDS011;9239;50.932;3.142;2023-06-10T08:06:30;9.35;;;8.52;;
18228;SDS011;9239;50.932;3.142;2023-06-10T08:08:57;10.85;;;8.98;;
18228;SDS011;9239;50.932;3.142;2023-06-10T08:11:25;9.57;;;8.77;;
18228;SDS011;9239;50.932;3.142;2023-06-10T08:13:54;9.00;;;8.30;;
18228;SDS011;9239;50.932;3.142;2023-06-10T08:16:22;9.52;;;8.68;;
18228;SDS011;9239;50.932;3.142;2023-06-10T08:18:49;10.70;;;9.75;;
18228;SDS011;9239;50.932;3.142;2023-06-10T08:21:16;9.00;;;8.15;;
18228;SDS011;9239;50.932;3.142;2023-06-10T08:23:43;9.30;;;8.60;;
18228;SDS011;9239;50.932;3.142;2023-06-10T08:26:10;9.15;;;8.43;;
18228;SDS011;9239;50.932;3.142;2023-06-10T08:28:37;9.60;;;8.73;;
18228;SDS011;9239;50.932;3.142;2023-06-10T08:31:06;9.30;;;8.38;;
18228;SDS011;9239;50.932;3.142;2023-06-10T08:33:33;9.73;;;9.00;;
18228;SDS011;9239;50.932;3.142;2023-06-10T08:36:00;9.15;;;8.45;;
18228;SDS011;9239;50.932;3.142;2023-06-10T08:38:29;8.52;;;7.93;;
18228;SDS011;9239;50.932;3.142;2023-06-10T08:40:56;8.70;;;7.82;;
18228;SDS011;9239;50.932;3.142;2023-06-10T08:43:28;9.25;;;8.52;;
18228;SDS011;9239;50.932;3.142;2023-06-10T08:46:00;10.43;;;9.63;;
18228;SDS011;9239;50.932;3.142;2023-06-10T08:48:30;9.25;;;8.45;;
18228;SDS011;9239;50.932;3.142;2023-06-10T08:50:59;8.55;;;7.75;;
18228;SDS011;9239;50.932;3.142;2023-06-10T08:53:29;8.82;;;7.93;;
18228;SDS011;9239;50.932;3.142;2023-06-10T08:55:59;8.40;;;7.43;;
18228;SDS011;9239;50.932;3.142;2023-06-10T08:58:30;9.00;;;8.18;;
18228;SDS011;9239;50.932;3.142;2023-06-10T09:01:00;8.30;;;7.50;;
18228;SDS011;9239;50.932;3.142;2023-06-10T09:03:27;8.50;;;7.72;;
18228;SDS011;9239;50.932;3.142;2023-06-10T09:05:56;8.00;;;7.32;;
18228;SDS011;9239;50.932;3.142;2023-06-10T09:08:24;7.05;;;6.55;;
18228;SDS011;9239;50.932;3.142;2023-06-10T09:10:51;8.38;;;7.63;;
18228;SDS011;9239;50.932;3.142;2023-06-10T09:13:18;8.02;;;7.40;;
18228;SDS011;9239;50.932;3.142;2023-06-10T09:15:45;9.35;;;8.43;;
18228;SDS011;9239;50.932;3.142;2023-06-10T09:18:14;7.57;;;6.90;;
18228;SDS011;9239;50.932;3.142;2023-06-10T09:20:42;7.80;;;7.18;;
18228;SDS011;9239;50.932;3.142;2023-06-10T09:23:09;8.00;;;7.15;;
18228;SDS011;9239;50.932;3.142;2023-06-10T09:25:37;8.32;;;7.50;;
18228;SDS011;9239;50.932;3.142;2023-06-10T09:28:05;7.95;;;7.20;;
18228;SDS011;9239;50.932;3.142;2023-06-10T09:30:39;9.80;;;7.47;;
18228;SDS011;9239;50.932;3.142;2023-06-10T09:33:09;8.05;;;6.93;;
18228;SDS011;9239;50.932;3.142;2023-06-10T09:35:37;7.53;;;7.03;;
18228;SDS011;9239;50.932;3.142;2023-06-10T09:38:13;8.32;;;7.55;;
18228;SDS011;9239;50.932;3.142;2023-06-10T09:40:48;7.88;;;7.20;;
18228;SDS011;9239;50.932;3.142;2023-06-10T09:43:16;7.75;;;7.15;;
18228;SDS011;9239;50.932;3.142;2023-06-10T09:45:44;8.35;;;7.65;;
18228;SDS011;9239;50.932;3.142;2023-06-10T09:48:13;8.18;;;7.43;;
18228;SDS011;9239;50.932;3.142;2023-06-10T09:50:41;8.93;;;7.38;;
18228;SDS011;9239;50.932;3.142;2023-06-10T09:53:10;8.32;;;7.57;;
18228;SDS011;9239;50.932;3.142;2023-06-10T09:55:38;10.40;;;6.82;;
18228;SDS011;9239;50.932;3.142;2023-06-10T09:58:05;7.78;;;7.15;;
18228;SDS011;9239;50.932;3.142;2023-06-10T10:00:33;7.50;;;7.00;;
18228;SDS011;9239;50.932;3.142;2023-06-10T10:03:00;8.77;;;6.90;;
18228;SDS011;9239;50.932;3.142;2023-06-10T10:05:28;8.00;;;7.28;;
18228;SDS011;9239;50.932;3.142;2023-06-10T10:07:56;7.95;;;7.30;;
18228;SDS011;9239;50.932;3.142;2023-06-10T10:10:24;7.22;;;6.60;;
18228;SDS011;9239;50.932;3.142;2023-06-10T10:12:52;7.35;;;6.60;;
18228;SDS011;9239;50.932;3.142;2023-06-10T10:15:22;7.85;;;7.03;;
18228;SDS011;9239;50.932;3.142;2023-06-10T10:17:55;7.85;;;7.15;;
18228;SDS011;9239;50.932;3.142;2023-06-10T10:20:27;6.75;;;6.25;;
18228;SDS011;9239;50.932;3.142;2023-06-10T10:22:58;7.05;;;6.53;;
18228;SDS011;9239;50.932;3.142;2023-06-10T10:25:32;7.10;;;6.43;;
18228;SDS011;9239;50.932;3.142;2023-06-10T10:28:03;7.47;;;6.75;;
18228;SDS011;9239;50.932;3.142;2023-06-10T10:30:35;6.97;;;6.35;;
18228;SDS011;9239;50.932;3.142;2023-06-10T10:33:06;6.38;;;5.80;;
18228;SDS011;9239;50.932;3.142;2023-06-10T10:35:44;8.40;;;6.25;;
18228;SDS011;9239;50.932;3.142;2023-06-10T10:38:15;8.00;;;6.50;;
18228;SDS011;9239;50.932;3.142;2023-06-10T10:40:45;8.20;;;6.03;;
18228;SDS011;9239;50.932;3.142;2023-06-10T10:43:13;11.68;;;7.28;;
18228;SDS011;9239;50.932;3.142;2023-06-10T10:45:40;8.65;;;5.75;;
18228;SDS011;9239;50.932;3.142;2023-06-10T10:48:08;6.97;;;6.32;;
18228;SDS011;9239;50.932;3.142;2023-06-10T10:50:37;6.13;;;5.60;;
18228;SDS011;9239;50.932;3.142;2023-06-10T10:53:05;6.70;;;5.90;;
18228;SDS011;9239;50.932;3.142;2023-06-10T10:55:33;6.32;;;5.72;;
18228;SDS011;9239;50.932;3.142;2023-06-10T10:58:02;6.38;;;5.45;;
18228;SDS011;9239;50.932;3.142;2023-06-10T11:00:30;6.65;;;5.57;;
18228;SDS011;9239;50.932;3.142;2023-06-10T11:02:58;5.60;;;5.20;;
18228;SDS011;9239;50.932;3.142;2023-06-10T11:05:37;7.82;;;5.00;;
18228;SDS011;9239;50.932;3.142;2023-06-10T11:08:06;6.28;;;5.68;;
18228;SDS011;9239;50.932;3.142;2023-06-10T11:10:34;6.15;;;5.65;;
18228;SDS011;9239;50.932;3.142;2023-06-10T11:13:13;6.60;;;5.85;;
18228;SDS011;9239;50.932;3.142;2023-06-10T11:15:43;6.03;;;5.28;;
18228;SDS011;9239;50.932;3.142;2023-06-10T11:18:20;5.88;;;5.47;;
18228;SDS011;9239;50.932;3.142;2023-06-10T11:20:52;6.57;;;5.95;;
18228;SDS011;9239;50.932;3.142;2023-06-10T11:23:40;5.35;;;4.95;;
18228;SDS011;9239;50.932;3.142;2023-06-10T11:26:16;5.90;;;5.40;;
18228;SDS011;9239;50.932;3.142;2023-06-10T11:31:46;6.53;;;5.50;;
18228;SDS011;9239;50.932;3.142;2023-06-10T11:34:20;6.32;;;5.70;;
18228;SDS011;9239;50.932;3.142;2023-06-10T11:36:50;6.10;;;5.50;;
18228;SDS011;9239;50.932;3.142;2023-06-10T11:39:19;7.05;;;5.72;;
18228;SDS011;9239;50.932;3.142;2023-06-10T11:41:48;7.32;;;6.22;;
18228;SDS011;9239;50.932;3.142;2023-06-10T11:44:16;5.68;;;5.22;;
18228;SDS011;9239;50.932;3.142;2023-06-10T11:46:46;6.22;;;5.72;;
18228;SDS011;9239;50.932;3.142;2023-06-10T11:49:14;7.88;;;5.90;;
18228;SDS011;9239;50.932;3.142;2023-06-10T11:51:41;6.15;;;5.55;;
18228;SDS011;9239;50.932;3.142;2023-06-10T11:54:14;9.38;;;5.90;;
18228;SDS011;9239;50.932;3.142;2023-06-10T11:56:41;6.03;;;5.53;;
18228;SDS011;9239;50.932;3.142;2023-06-10T11:59:08;6.10;;;5.50;;
18228;SDS011;9239;50.932;3.142;2023-06-10T12:01:37;6.15;;;5.70;;
18228;SDS011;9239;50.932;3.142;2023-06-10T12:04:08;6.22;;;5.72;;
18228;SDS011;9239;50.932;3.142;2023-06-10T12:06:40;6.50;;;6.00;;
18228;SDS011;9239;50.932;3.142;2023-06-10T12:09:13;5.55;;;5.13;;
18228;SDS011;9239;50.932;3.142;2023-06-10T12:11:41;5.57;;;5.18;;
18228;SDS011;9239;50.932;3.142;2023-06-10T12:14:09;10.18;;;5.65;;
18228;SDS011;9239;50.932;3.142;2023-06-10T12:16:38;5.63;;;4.50;;
18228;SDS011;9239;50.932;3.142;2023-06-10T12:19:05;5.68;;;5.28;;
18228;SDS011;9239;50.932;3.142;2023-06-10T12:21:33;6.70;;;5.80;;
18228;SDS011;9239;50.932;3.142;2023-06-10T12:24:01;5.90;;;5.30;;
18228;SDS011;9239;50.932;3.142;2023-06-10T12:26:36;5.65;;;5.15;;
18228;SDS011;9239;50.932;3.142;2023-06-10T12:29:18;5.75;;;5.28;;
18228;SDS011;9239;50.932;3.142;2023-06-10T12:31:55;6.05;;;5.63;;
18228;SDS011;9239;50.932;3.142;2023-06-10T12:34:28;5.85;;;5.28;;
18228;SDS011;9239;50.932;3.142;2023-06-10T12:36:59;5.80;;;5.35;;
18228;SDS011;9239;50.932;3.142;2023-06-10T12:39:29;6.00;;;5.50;;
18228;SDS011;9239;50.932;3.142;2023-06-10T12:41:56;7.03;;;5.07;;
18228;SDS011;9239;50.932;3.142;2023-06-10T12:44:30;5.90;;;5.50;;
18228;SDS011;9239;50.932;3.142;2023-06-10T12:47:00;6.07;;;5.60;;
18228;SDS011;9239;50.932;3.142;2023-06-10T12:49:27;6.03;;;5.60;;
18228;SDS011;9239;50.932;3.142;2023-06-10T12:51:54;5.53;;;5.10;;
18228;SDS011;9239;50.932;3.142;2023-06-10T12:54:21;5.95;;;5.35;;
18228;SDS011;9239;50.932;3.142;2023-06-10T12:56:48;6.50;;;5.28;;
18228;SDS011;9239;50.932;3.142;2023-06-10T12:59:15;5.80;;;5.13;;
18228;SDS011;9239;50.932;3.142;2023-06-10T13:01:42;5.55;;;5.05;;
18228;SDS011;9239;50.932;3.142;2023-06-10T13:04:10;5.80;;;5.32;;
18228;SDS011;9239;50.932;3.142;2023-06-10T13:06:37;5.40;;;5.00;;
18228;SDS011;9239;50.932;3.142;2023-06-10T13:09:07;5.45;;;5.03;;
18228;SDS011;9239;50.932;3.142;2023-06-10T13:11:34;5.95;;;5.40;;
18228;SDS011;9239;50.932;3.142;2023-06-10T13:14:02;6.05;;;5.50;;
18228;SDS011;9239;50.932;3.142;2023-06-10T13:16:29;5.70;;;5.20;;
18228;SDS011;9239;50.932;3.142;2023-06-10T13:18:56;7.25;;;5.78;;
18228;SDS011;9239;50.932;3.142;2023-06-10T13:21:25;6.28;;;5.60;;
18228;SDS011;9239;50.932;3.142;2023-06-10T13:23:52;6.13;;;5.53;;
18228;SDS011;9239;50.932;3.142;2023-06-10T13:26:19;7.25;;;5.40;;
18228;SDS011;9239;50.932;3.142;2023-06-10T13:28:46;6.07;;;5.68;;
18228;SDS011;9239;50.932;3.142;2023-06-10T13:31:13;5.90;;;5.38;;
18228;SDS011;9239;50.932;3.142;2023-06-10T13:33:41;6.25;;;5.72;;
18228;SDS011;9239;50.932;3.142;2023-06-10T13:36:08;6.63;;;6.00;;
18228;SDS011;9239;50.932;3.142;2023-06-10T13:38:37;6.18;;;5.57;;
18228;SDS011;9239;50.932;3.142;2023-06-10T13:41:04;6.55;;;6.05;;
18228;SDS011;9239;50.932;3.142;2023-06-10T13:43:31;6.50;;;6.00;;
18228;SDS011;9239;50.932;3.142;2023-06-10T13:45:58;5.90;;;4.97;;
18228;SDS011;9239;50.932;3.142;2023-06-10T13:48:25;6.10;;;5.22;;
18228;SDS011;9239;50.932;3.142;2023-06-10T13:50:52;5.95;;;5.45;;
18228;SDS011;9239;50.932;3.142;2023-06-10T13:53:19;5.57;;;5.18;;
18228;SDS011;9239;50.932;3.142;2023-06-10T13:55:47;6.20;;;5.70;;
18228;SDS011;9239;50.932;3.142;2023-06-10T13:58:14;5.75;;;5.35;;
18228;SDS011;9239;50.932;3.142;2023-06-10T14:00:40;6.00;;;5.50;;
18228;SDS011;9239;50.932;3.142;2023-06-10T14:03:07;6.18;;;5.38;;
18228;SDS011;9239;50.932;3.142;2023-06-10T14:05:34;5.68;;;5.13;;
18228;SDS011;9239;50.932;3.142;2023-06-10T14:08:01;5.60;;;5.20;;
18228;SDS011;9239;50.932;3.142;2023-06-10T14:10:28;6.18;;;5.07;;
18228;SDS011;9239;50.932;3.142;2023-06-10T14:15:41;5.55;;;5.05;;
18228;SDS011;9239;50.932;3.142;2023-06-10T14:18:08;6.13;;;5.63;;
18228;SDS011;9239;50.932;3.142;2023-06-10T14:20:35;5.57;;;5.07;;
18228;SDS011;9239;50.932;3.142;2023-06-10T14:23:02;5.82;;;5.35;;
18228;SDS011;9239;50.932;3.142;2023-06-10T14:25:29;6.18;;;5.57;;
18228;SDS011;9239;50.932;3.142;2023-06-10T14:27:56;5.40;;;4.95;;
18228;SDS011;9239;50.932;3.142;2023-06-10T14:30:27;6.20;;;5.30;;
18228;SDS011;9239;50.932;3.142;2023-06-10T14:32:54;5.50;;;5.00;;
18228;SDS011;9239;50.932;3.142;2023-06-10T14:35:21;6.25;;;5.65;;
18228;SDS011;9239;50.932;3.142;2023-06-10T14:37:48;5.50;;;5.05;;
18228;SDS011;9239;50.932;3.142;2023-06-10T14:40:15;5.45;;;5.05;;
18228;SDS011;9239;50.932;3.142;2023-06-10T14:42:42;5.90;;;5.40;;
18228;SDS011;9239;50.932;3.142;2023-06-10T14:45:09;6.28;;;5.75;;
18228;SDS011;9239;50.932;3.142;2023-06-10T14:47:37;5.80;;;5.40;;
18228;SDS011;9239;50.932;3.142;2023-06-10T14:50:04;5.93;;;5.43;;
18228;SDS011;9239;50.932;3.142;2023-06-10T14:52:32;5.70;;;5.30;;
18228;SDS011;9239;50.932;3.142;2023-06-10T14:54:59;5.70;;;5.30;;
18228;SDS011;9239;50.932;3.142;2023-06-10T14:57:26;5.20;;;4.80;;
18228;SDS011;9239;50.932;3.142;2023-06-10T14:59:52;5.80;;;5.03;;
18228;SDS011;9239;50.932;3.142;2023-06-10T15:02:21;5.43;;;4.90;;
18228;SDS011;9239;50.932;3.142;2023-06-10T15:04:49;5.78;;;5.32;;